DLH4JV EDDF-EDDS
Flight info
| Callsign | DLH4JV |
|---|---|
| Flight time | 0h 19m |
| Altitude | 17000 |
| Route | ANEKI2L/18 ANEKI Y163 NEKLO Y171 INKAM N850 KRH T128 BADSO BADSO2A |
| Aircraft | A321/M-SDE3FGHIRWY/LB1 |
Departure
| Time | 2026-04-17 09:00 |
|---|---|
| Airport | Frankfurt Main Airport (EDDF) |
Arrival
| Time | 2026-04-17 09:19 |
|---|---|
| Airport | Stuttgart Airport (EDDS) |
| Time | Latitude | Longitude | Altitude | Speed | Heading |
|---|---|---|---|---|---|
| 2026-04-17 08:46 | 50.04042 | 8.55546 | 359 ft | 0 kts | 160° |
| 2026-04-17 08:55 | 50.04041 | 8.55546 | 351 ft | 1 kts | 160° |
| 2026-04-17 08:55 | 50.04026 | 8.55554 | 352 ft | 3 kts | 160° |
| 2026-04-17 08:56 | 50.03994 | 8.55573 | 357 ft | 7 kts | 160° |
| 2026-04-17 08:56 | 50.03951 | 8.55535 | 356 ft | 9 kts | 242° |
| 2026-04-17 08:56 | 50.03924 | 8.55425 | 351 ft | 12 kts | 248° |
| 2026-04-17 08:56 | 50.03882 | 8.55255 | 350 ft | 21 kts | 249° |
| 2026-04-17 08:57 | 50.03826 | 8.55020 | 351 ft | 24 kts | 249° |
| 2026-04-17 08:57 | 50.03764 | 8.54765 | 355 ft | 26 kts | 249° |
| 2026-04-17 08:57 | 50.03696 | 8.54485 | 344 ft | 29 kts | 250° |
| 2026-04-17 08:57 | 50.03624 | 8.54182 | 346 ft | 30 kts | 249° |
| 2026-04-17 08:58 | 50.03551 | 8.53863 | 341 ft | 32 kts | 251° |
| 2026-04-17 08:58 | 50.03471 | 8.53533 | 335 ft | 33 kts | 249° |
| 2026-04-17 08:58 | 50.03390 | 8.53190 | 332 ft | 34 kts | 249° |
| 2026-04-17 08:58 | 50.03308 | 8.52853 | 333 ft | 31 kts | 251° |
| 2026-04-17 08:59 | 50.03226 | 8.52621 | 333 ft | 21 kts | 210° |
| 2026-04-17 08:59 | 50.02967 | 8.52605 | 334 ft | 73 kts | 179° |
| 2026-04-17 08:59 | 50.02191 | 8.52595 | 335 ft | 146 kts | 179° |
| 2026-04-17 08:59 | 50.01009 | 8.52636 | 590 ft | 180 kts | 177° |
| 2026-04-17 09:00 | 49.99768 | 8.52675 | 1382 ft | 181 kts | 178° |
| 2026-04-17 09:00 | 49.98502 | 8.52746 | 2061 ft | 188 kts | 178° |
| 2026-04-17 09:00 | 49.97112 | 8.52839 | 2379 ft | 211 kts | 178° |
| 2026-04-17 09:00 | 49.95585 | 8.52945 | 2888 ft | 224 kts | 178° |
| 2026-04-17 09:01 | 49.94023 | 8.53054 | 3783 ft | 225 kts | 178° |
| 2026-04-17 09:01 | 49.92413 | 8.53241 | 4382 ft | 244 kts | 174° |
| 2026-04-17 09:01 | 49.90662 | 8.53582 | 4940 ft | 260 kts | 172° |
| 2026-04-17 09:01 | 49.88849 | 8.53984 | 5767 ft | 265 kts | 172° |
| 2026-04-17 09:02 | 49.87016 | 8.54397 | 6655 ft | 268 kts | 172° |
| 2026-04-17 09:02 | 49.85160 | 8.54811 | 7464 ft | 272 kts | 172° |
| 2026-04-17 09:02 | 49.83268 | 8.55230 | 8259 ft | 277 kts | 172° |
| 2026-04-17 09:02 | 49.81343 | 8.55652 | 9052 ft | 282 kts | 172° |
| 2026-04-17 09:03 | 49.79378 | 8.56077 | 9833 ft | 288 kts | 173° |
| 2026-04-17 09:03 | 49.77376 | 8.56508 | 10527 ft | 296 kts | 173° |
| 2026-04-17 09:03 | 49.75254 | 8.56962 | 10757 ft | 319 kts | 173° |
| 2026-04-17 09:03 | 49.72974 | 8.57447 | 10968 ft | 342 kts | 173° |
| 2026-04-17 09:04 | 49.70581 | 8.57955 | 11460 ft | 351 kts | 173° |
| 2026-04-17 09:04 | 49.68138 | 8.58478 | 12110 ft | 356 kts | 173° |
| 2026-04-17 09:04 | 49.65667 | 8.59013 | 12787 ft | 361 kts | 173° |
| 2026-04-17 09:04 | 49.63163 | 8.59555 | 13457 ft | 366 kts | 173° |
| 2026-04-17 09:05 | 49.60629 | 8.60098 | 14113 ft | 370 kts | 173° |
| 2026-04-17 09:05 | 49.58057 | 8.60641 | 14711 ft | 374 kts | 173° |
| 2026-04-17 09:05 | 49.55469 | 8.61187 | 15323 ft | 378 kts | 173° |
| 2026-04-17 09:05 | 49.52850 | 8.61743 | 15939 ft | 380 kts | 173° |
| 2026-04-17 09:06 | 49.50211 | 8.62302 | 16513 ft | 386 kts | 174° |
| 2026-04-17 09:06 | 49.47521 | 8.62867 | 16897 ft | 396 kts | 174° |
| 2026-04-17 09:06 | 49.44747 | 8.63450 | 17155 ft | 409 kts | 174° |
| 2026-04-17 09:06 | 49.41879 | 8.64051 | 17231 ft | 424 kts | 173° |
| 2026-04-17 09:07 | 49.38899 | 8.64675 | 17247 ft | 441 kts | 173° |
| 2026-04-17 09:07 | 49.35851 | 8.65314 | 17242 ft | 450 kts | 173° |
| 2026-04-17 09:07 | 49.32744 | 8.65969 | 17234 ft | 452 kts | 173° |
| 2026-04-17 09:07 | 49.29580 | 8.66638 | 17234 ft | 453 kts | 173° |
| 2026-04-17 09:08 | 49.26497 | 8.67289 | 17237 ft | 453 kts | 173° |
| 2026-04-17 09:08 | 49.23374 | 8.67946 | 17234 ft | 453 kts | 173° |
| 2026-04-17 09:08 | 49.20250 | 8.68600 | 17216 ft | 453 kts | 173° |
| 2026-04-17 09:08 | 49.17126 | 8.69253 | 17220 ft | 453 kts | 173° |
| 2026-04-17 09:09 | 49.14005 | 8.69903 | 17219 ft | 452 kts | 173° |
| 2026-04-17 09:09 | 49.10892 | 8.70549 | 17223 ft | 453 kts | 173° |
| 2026-04-17 09:09 | 49.07763 | 8.71195 | 17224 ft | 452 kts | 173° |
| 2026-04-17 09:09 | 49.04644 | 8.71841 | 17211 ft | 452 kts | 173° |
| 2026-04-17 09:10 | 48.98411 | 8.73137 | 17201 ft | 451 kts | 173° |
| 2026-04-17 09:10 | 48.95353 | 8.73773 | 16728 ft | 431 kts | 173° |
| 2026-04-17 09:10 | 48.92433 | 8.74385 | 15050 ft | 418 kts | 173° |
| 2026-04-17 09:11 | 48.89579 | 8.74981 | 13367 ft | 409 kts | 173° |
| 2026-04-17 09:11 | 48.86800 | 8.75555 | 11693 ft | 398 kts | 173° |
| 2026-04-17 09:11 | 48.84091 | 8.76110 | 10107 ft | 388 kts | 173° |
| 2026-04-17 09:11 | 48.81447 | 8.76650 | 8667 ft | 374 kts | 172° |
| 2026-04-17 09:12 | 48.79004 | 8.77148 | 8493 ft | 347 kts | 172° |
| 2026-04-17 09:12 | 48.76543 | 8.77652 | 7960 ft | 360 kts | 172° |
| 2026-04-17 09:12 | 48.74030 | 8.78165 | 7429 ft | 373 kts | 172° |
| 2026-04-17 09:12 | 48.71483 | 8.78683 | 6851 ft | 356 kts | 171° |
| 2026-04-17 09:13 | 48.69212 | 8.79594 | 6287 ft | 322 kts | 156° |
| 2026-04-17 09:13 | 48.67348 | 8.81195 | 6010 ft | 298 kts | 142° |
| 2026-04-17 09:13 | 48.65894 | 8.83236 | 5888 ft | 282 kts | 130° |
| 2026-04-17 09:13 | 48.64793 | 8.85608 | 5691 ft | 270 kts | 118° |
| 2026-04-17 09:14 | 48.64055 | 8.88207 | 5458 ft | 262 kts | 107° |
| 2026-04-17 09:14 | 48.63693 | 8.90833 | 5188 ft | 257 kts | 96° |
| 2026-04-17 09:14 | 48.63674 | 8.93511 | 4882 ft | 254 kts | 85° |
| 2026-04-17 09:14 | 48.63998 | 8.96129 | 4545 ft | 252 kts | 75° |
| 2026-04-17 09:15 | 48.64489 | 8.98670 | 4201 ft | 251 kts | 75° |
| 2026-04-17 09:15 | 48.64962 | 9.01121 | 3899 ft | 235 kts | 75° |
| 2026-04-17 09:15 | 48.65400 | 9.03403 | 3589 ft | 217 kts | 75° |
| 2026-04-17 09:15 | 48.65804 | 9.05509 | 3327 ft | 201 kts | 75° |
| 2026-04-17 09:16 | 48.66180 | 9.07473 | 3063 ft | 188 kts | 75° |
| 2026-04-17 09:16 | 48.66527 | 9.09283 | 2818 ft | 168 kts | 76° |
| 2026-04-17 09:16 | 48.66832 | 9.10881 | 2597 ft | 151 kts | 75° |
| 2026-04-17 09:16 | 48.67117 | 9.12364 | 2411 ft | 144 kts | 74° |
| 2026-04-17 09:17 | 48.67397 | 9.13801 | 2222 ft | 141 kts | 73° |
| 2026-04-17 09:17 | 48.67671 | 9.15222 | 2038 ft | 140 kts | 73° |
| 2026-04-17 09:17 | 48.67936 | 9.16637 | 1818 ft | 139 kts | 72° |
| 2026-04-17 09:17 | 48.68206 | 9.18041 | 1638 ft | 138 kts | 73° |
| 2026-04-17 09:18 | 48.68470 | 9.19444 | 1457 ft | 138 kts | 73° |
| 2026-04-17 09:18 | 48.68735 | 9.20835 | 1288 ft | 137 kts | 73° |
| 2026-04-17 09:18 | 48.68975 | 9.22082 | 1239 ft | 105 kts | 75° |
| 2026-04-17 09:18 | 48.69125 | 9.22898 | 1219 ft | 61 kts | 74° |
| 2026-04-17 09:19 | 48.69223 | 9.23389 | 1209 ft | 38 kts | 70° |
| 2026-04-17 09:19 | 48.69377 | 9.23693 | 1205 ft | 26 kts | 41° |
| 2026-04-17 09:19 | 48.69513 | 9.23668 | 1211 ft | 22 kts | 289° |
| 2026-04-17 09:19 | 48.69488 | 9.23449 | 1217 ft | 21 kts | 254° |
| 2026-04-17 09:20 | 48.69444 | 9.23232 | 1221 ft | 22 kts | 253° |
| 2026-04-17 09:20 | 48.69402 | 9.23015 | 1225 ft | 22 kts | 255° |
| 2026-04-17 09:20 | 48.69358 | 9.22783 | 1230 ft | 23 kts | 253° |
| 2026-04-17 09:20 | 48.69312 | 9.22537 | 1234 ft | 28 kts | 254° |
| 2026-04-17 09:21 | 48.69205 | 9.21958 | 1261 ft | 103 kts | 254° |
| 2026-04-17 09:21 | 48.69085 | 9.21317 | 1267 ft | 26 kts | 252° |
| 2026-04-17 09:21 | 48.69024 | 9.21007 | 1273 ft | 32 kts | 254° |
| 2026-04-17 09:21 | 48.68963 | 9.20689 | 1278 ft | 31 kts | 254° |
| 2026-04-17 09:22 | 48.68904 | 9.20385 | 1286 ft | 29 kts | 253° |
| 2026-04-17 09:22 | 48.68856 | 9.20095 | 1294 ft | 28 kts | 258° |
| 2026-04-17 09:22 | 48.68824 | 9.19910 | 1298 ft | 7 kts | 302° |
| 2026-04-17 09:22 | 48.68856 | 9.19888 | 1300 ft | 8 kts | 338° |
| 2026-04-17 09:23 | 48.68886 | 9.19814 | 1304 ft | 8 kts | 268° |
| 2026-04-17 09:23 | 48.68867 | 9.19701 | 1308 ft | 14 kts | 254° |
| 2026-04-17 09:23 | 48.68843 | 9.19576 | 1310 ft | 11 kts | 255° |
| 2026-04-17 09:23 | 48.68829 | 9.19490 | 1312 ft | 6 kts | 265° |
| 2026-04-17 09:24 | 48.68840 | 9.19460 | 1313 ft | 1 kts | 313° |
| 2026-04-17 09:24 | 48.68842 | 9.19458 | 1313 ft | 2 kts | 317° |
| 2026-04-17 09:24 | 48.68884 | 9.19434 | 1315 ft | 6 kts | 343° |
| 2026-04-17 09:24 | 48.68893 | 9.19430 | 1315 ft | 0 kts | 343° |